Time;durP1;ratioP1;P1;durP2;ratioP2;P2;SDS_P1;SDS_P2;PMS_P1;PMS_P2;Temp;Humidity;BMP_temperature;BMP_pressure;BME280_temperature;BME280_humidity;BME280_pressure;Samples;Min_cycle;Max_cycle;Signal;HPM_P1;HPM_P2
2021/06/27 00:01:09;;;;;;;41.40;15.73;;;;;;;;;;5010815;28;20030;-72
2021/06/27 00:03:34;;;;;;;38.27;15.20;;;;;;;;;;5007625;28;20049;-72
2021/06/27 00:06:00;;;;;;;40.27;14.97;;;;;;;;;;5011747;28;20474;-72
2021/06/27 00:08:25;;;;;;;42.67;16.30;;;;;;;;;;5011731;28;20120;-72
2021/06/27 00:10:55;;;;;;;43.30;16.00;;;;;;;;;;5011539;28;20454;-72
2021/06/27 00:13:20;;;;;;;46.57;15.87;;;;;;;;;;5010980;28;20048;-72
2021/06/27 00:15:47;;;;;;;39.93;14.73;;;;;;;;;;5011874;28;20034;-72
2021/06/27 00:18:14;;;;;;;45.43;16.53;;;;;;;;;;5011209;28;20022;-72
2021/06/27 00:20:42;;;;;;;41.53;15.73;;;;;;;;;;5010579;28;20375;-72
2021/06/27 00:23:08;;;;;;;43.17;15.90;;;;;;;;;;5011162;28;20045;-72
2021/06/27 00:25:35;;;;;;;41.73;14.93;;;;;;;;;;5011257;28;20026;-72
2021/06/27 00:28:01;;;;;;;48.10;15.63;;;;;;;;;;5011692;28;20382;-72
2021/06/27 00:30:26;;;;;;;40.67;15.30;;;;;;;;;;5011088;28;20029;-72
2021/06/27 00:32:52;;;;;;;49.13;16.53;;;;;;;;;;5010458;28;20022;-72
2021/06/27 00:35:19;;;;;;;47.07;16.17;;;;;;;;;;5011442;28;20022;-72
2021/06/27 00:37:45;;;;;;;45.33;16.50;;;;;;;;;;5011160;28;20033;-72
2021/06/27 00:40:12;;;;;;;45.07;16.23;;;;;;;;;;5012657;28;20030;-72
2021/06/27 00:42:38;;;;;;;47.87;16.47;;;;;;;;;;5013996;28;20037;-72
2021/06/27 00:45:05;;;;;;;43.60;15.87;;;;;;;;;;5014839;28;20026;-72
2021/06/27 00:47:32;;;;;;;46.43;16.20;;;;;;;;;;5014795;28;20104;-72
2021/06/27 00:49:57;;;;;;;48.03;16.53;;;;;;;;;;5015328;28;20029;-72
2021/06/27 00:52:23;;;;;;;46.47;16.23;;;;;;;;;;5013544;28;20018;-72
2021/06/27 00:54:48;;;;;;;49.50;16.33;;;;;;;;;;5014936;28;20382;-72
2021/06/27 00:57:14;;;;;;;47.83;16.37;;;;;;;;;;5018464;28;20018;-72
2021/06/27 00:59:39;;;;;;;49.70;17.33;;;;;;;;;;5014604;28;20025;-72
2021/06/27 01:02:04;;;;;;;48.27;17.27;;;;;;;;;;5014341;28;20072;-72
2021/06/27 01:04:30;;;;;;;46.57;15.93;;;;;;;;;;5014789;28;20049;-72
2021/06/27 01:06:56;;;;;;;55.03;17.70;;;;;;;;;;5015274;28;20022;-72
2021/06/27 01:09:21;;;;;;;59.30;17.30;;;;;;;;;;5014699;28;20030;-72
2021/06/27 01:11:49;;;;;;;50.27;17.23;;;;;;;;;;5015128;28;20106;-72
2021/06/27 01:14:15;;;;;;;49.40;17.33;;;;;;;;;;5014499;28;20057;-72
2021/06/27 01:16:41;;;;;;;54.10;17.47;;;;;;;;;;5014637;28;20025;-72
2021/06/27 01:19:09;;;;;;;45.93;17.50;;;;;;;;;;5014200;28;20064;-72
2021/06/27 01:21:38;;;;;;;48.63;16.97;;;;;;;;;;5014851;28;20030;-72
2021/06/27 01:24:03;;;;;;;48.60;18.00;;;;;;;;;;5013753;28;20041;-72
2021/06/27 01:26:29;;;;;;;52.73;16.57;;;;;;;;;;5014835;28;20021;-72
2021/06/27 01:28:54;;;;;;;56.10;18.20;;;;;;;;;;5014158;28;20080;-72
2021/06/27 01:31:19;;;;;;;50.63;16.57;;;;;;;;;;5014621;28;20109;-72
2021/06/27 01:33:47;;;;;;;53.63;17.47;;;;;;;;;;5014002;28;20018;-72
2021/06/27 01:36:13;;;;;;;51.40;16.53;;;;;;;;;;5014436;28;20493;-72
2021/06/27 01:38:38;;;;;;;59.80;17.53;;;;;;;;;;5013945;28;20030;-72
2021/06/27 01:41:04;;;;;;;59.07;18.17;;;;;;;;;;5013956;28;20366;-72
2021/06/27 01:43:30;;;;;;;49.83;16.70;;;;;;;;;;5013720;28;20022;-72
2021/06/27 01:45:56;;;;;;;54.73;17.90;;;;;;;;;;5013755;28;20368;-72
2021/06/27 01:48:21;;;;;;;52.53;17.03;;;;;;;;;;5013694;28;20033;-72
2021/06/27 01:50:49;;;;;;;59.80;18.17;;;;;;;;;;5013267;28;20029;-72
2021/06/27 01:53:15;;;;;;;60.50;18.03;;;;;;;;;;5012293;28;20068;-72
2021/06/27 01:55:41;;;;;;;58.23;17.40;;;;;;;;;;5015364;28;20018;-72
2021/06/27 01:58:06;;;;;;;64.03;18.63;;;;;;;;;;5013959;28;20022;-72
2021/06/27 02:00:32;;;;;;;64.50;19.00;;;;;;;;;;5013516;28;20437;-72
2021/06/27 02:02:58;;;;;;;58.50;18.57;;;;;;;;;;5013182;28;20032;-72
2021/06/27 02:05:23;;;;;;;63.87;17.50;;;;;;;;;;5013017;28;20026;-72
2021/06/27 02:07:49;;;;;;;65.00;19.13;;;;;;;;;;5013960;28;20053;-72
2021/06/27 02:10:17;;;;;;;66.60;18.90;;;;;;;;;;5013074;28;20100;-72
2021/06/27 02:12:42;;;;;;;64.17;18.73;;;;;;;;;;5012948;28;20557;-72
2021/06/27 02:15:08;;;;;;;65.87;19.17;;;;;;;;;;5013052;28;20025;-72
2021/06/27 02:17:34;;;;;;;71.40;19.30;;;;;;;;;;5013807;28;20026;-72
2021/06/27 02:20:00;;;;;;;62.43;17.67;;;;;;;;;;5013816;28;20021;-72
2021/06/27 02:22:25;;;;;;;57.73;17.97;;;;;;;;;;5013704;28;20034;-72
2021/06/27 02:24:51;;;;;;;59.80;18.07;;;;;;;;;;5013237;28;20418;-72
2021/06/27 02:27:17;;;;;;;61.70;18.23;;;;;;;;;;5012750;28;20033;-72
2021/06/27 02:29:42;;;;;;;58.73;19.03;;;;;;;;;;5013255;28;20382;-72
2021/06/27 02:32:08;;;;;;;66.80;18.07;;;;;;;;;;5013192;28;20022;-72
2021/06/27 02:34:33;;;;;;;71.43;19.53;;;;;;;;;;5013394;28;20017;-72
2021/06/27 02:36:58;;;;;;;60.97;18.43;;;;;;;;;;5013181;28;20049;-70
2021/06/27 02:39:24;;;;;;;65.93;18.80;;;;;;;;;;5013212;28;20025;-70
2021/06/27 02:41:50;;;;;;;71.37;19.10;;;;;;;;;;5012830;28;20025;-70
2021/06/27 02:44:15;;;;;;;63.43;18.47;;;;;;;;;;5012670;28;20026;-70
2021/06/27 02:46:41;;;;;;;76.77;19.53;;;;;;;;;;5012472;28;20026;-70
2021/06/27 02:49:06;;;;;;;77.83;18.97;;;;;;;;;;5012383;28;20088;-70
2021/06/27 02:51:32;;;;;;;71.40;19.73;;;;;;;;;;5012622;28;20092;-70
2021/06/27 02:53:57;;;;;;;74.77;19.17;;;;;;;;;;5012471;28;20097;-70
2021/06/27 02:56:22;;;;;;;74.70;19.97;;;;;;;;;;5013118;28;20033;-72
2021/06/27 02:58:48;;;;;;;75.50;19.23;;;;;;;;;;5013350;28;20026;-70
2021/06/27 03:01:14;;;;;;;70.23;19.90;;;;;;;;;;5013088;28;20030;-70
2021/06/27 03:03:40;;;;;;;67.47;20.07;;;;;;;;;;5012262;28;20030;-70
2021/06/27 03:06:06;;;;;;;59.57;17.77;;;;;;;;;;5011693;28;20060;-70
2021/06/27 03:08:31;;;;;;;66.43;19.60;;;;;;;;;;5012652;28;20080;-70
2021/06/27 03:10:58;;;;;;;66.90;19.43;;;;;;;;;;5011487;28;20038;-70
2021/06/27 03:13:23;;;;;;;75.57;19.63;;;;;;;;;;5012237;28;20054;-69
2021/06/27 03:15:48;;;;;;;63.97;18.67;;;;;;;;;;5012566;28;20097;-69
2021/06/27 03:18:14;;;;;;;64.13;18.60;;;;;;;;;;5012084;28;20026;-69
2021/06/27 03:20:39;;;;;;;59.77;18.67;;;;;;;;;;5011957;28;20036;-69
2021/06/27 03:23:04;;;;;;;62.57;18.20;;;;;;;;;;5012361;28;20018;-69
2021/06/27 03:25:31;;;;;;;53.13;17.83;;;;;;;;;;5012457;28;20025;-69
2021/06/27 03:27:56;;;;;;;70.00;18.90;;;;;;;;;;5012121;28;20022;-69
2021/06/27 03:30:22;;;;;;;61.93;17.93;;;;;;;;;;5012028;28;20425;-69
2021/06/27 03:32:48;;;;;;;64.27;18.77;;;;;;;;;;5012401;28;20049;-69
2021/06/27 03:35:13;;;;;;;59.60;18.60;;;;;;;;;;5011570;28;20018;-69
2021/06/27 03:37:45;;;;;;;60.53;18.03;;;;;;;;;;5012013;28;20605;-69
2021/06/27 03:40:10;;;;;;;60.47;18.67;;;;;;;;;;5011987;28;20053;-69
2021/06/27 03:42:36;;;;;;;56.57;18.80;;;;;;;;;;5011764;28;20072;-69
2021/06/27 03:45:01;;;;;;;56.73;17.43;;;;;;;;;;5011922;28;20459;-69
2021/06/27 03:47:26;;;;;;;60.60;17.97;;;;;;;;;;5011455;28;20427;-69
2021/06/27 03:49:52;;;;;;;52.30;16.93;;;;;;;;;;5011775;28;20034;-69
2021/06/27 03:52:18;;;;;;;47.53;16.27;;;;;;;;;;5011826;28;20041;-69
2021/06/27 03:54:43;;;;;;;47.70;16.30;;;;;;;;;;5011571;28;20026;-69
2021/06/27 03:57:08;;;;;;;46.73;16.27;;;;;;;;;;5015652;28;20018;-70
2021/06/27 03:59:34;;;;;;;47.63;15.53;;;;;;;;;;5011223;28;20025;-69
2021/06/27 04:01:59;;;;;;;45.83;15.97;;;;;;;;;;5010982;28;20028;-69
2021/06/27 04:04:24;;;;;;;39.90;15.60;;;;;;;;;;5011847;28;20343;-69
2021/06/27 04:06:50;;;;;;;47.93;15.43;;;;;;;;;;5012095;28;20022;-69
2021/06/27 04:09:15;;;;;;;43.30;15.37;;;;;;;;;;5011075;28;20112;-69
2021/06/27 04:11:40;;;;;;;38.47;15.20;;;;;;;;;;5011259;28;20134;-69
2021/06/27 04:14:05;;;;;;;38.30;14.40;;;;;;;;;;5010304;28;20125;-68
2021/06/27 04:16:32;;;;;;;31.37;13.07;;;;;;;;;;5004441;28;20105;-68
2021/06/27 04:18:58;;;;;;;31.83;13.33;;;;;;;;;;5010384;28;20040;-68
2021/06/27 04:21:25;;;;;;;29.43;12.50;;;;;;;;;;5011338;28;20029;-68
2021/06/27 04:23:50;;;;;;;30.03;12.23;;;;;;;;;;5010929;28;20096;-68
2021/06/27 04:26:15;;;;;;;23.87;10.80;;;;;;;;;;5011065;28;20034;-68
2021/06/27 04:28:41;;;;;;;25.40;10.77;;;;;;;;;;5011119;28;20105;-68
2021/06/27 04:31:06;;;;;;;25.30;11.20;;;;;;;;;;5010648;28;20029;-68
2021/06/27 04:33:31;;;;;;;23.10;10.40;;;;;;;;;;5011192;28;20030;-68
2021/06/27 04:35:57;;;;;;;24.63;10.77;;;;;;;;;;5011551;28;20410;-68
2021/06/27 04:38:24;;;;;;;21.60;10.07;;;;;;;;;;5011592;28;20052;-67
2021/06/27 04:40:50;;;;;;;26.17;11.77;;;;;;;;;;5011552;28;20108;-67
2021/06/27 04:43:15;;;;;;;22.00;10.07;;;;;;;;;;5011370;28;20121;-67
2021/06/27 04:45:41;;;;;;;21.88;10.27;;;;;;;;;;5011616;28;20037;-67
2021/06/27 04:48:06;;;;;;;20.08;10.38;;;;;;;;;;5011589;28;20026;-67
2021/06/27 04:50:32;;;;;;;22.45;9.88;;;;;;;;;;5010816;28;20033;-67
2021/06/27 04:52:57;;;;;;;20.67;10.18;;;;;;;;;;5011628;28;20033;-67
2021/06/27 04:55:23;;;;;;;19.52;9.50;;;;;;;;;;5014378;28;20017;-67
2021/06/27 04:57:48;;;;;;;22.00;9.95;;;;;;;;;;5011439;28;20164;-67
2021/06/27 05:00:14;;;;;;;19.92;9.88;;;;;;;;;;5011180;28;20041;-67
2021/06/27 05:02:40;;;;;;;21.27;9.85;;;;;;;;;;5010956;28;20030;-67
2021/06/27 05:05:06;;;;;;;26.15;9.70;;;;;;;;;;5011302;28;20033;-67
2021/06/27 05:07:31;;;;;;;22.77;10.30;;;;;;;;;;5011002;28;20096;-67
2021/06/27 05:09:57;;;;;;;19.70;9.15;;;;;;;;;;5010821;28;20092;-67
2021/06/27 05:12:26;;;;;;;21.52;10.10;;;;;;;;;;5010262;28;20053;-67
2021/06/27 05:14:52;;;;;;;18.27;9.98;;;;;;;;;;5011171;28;20032;-67
2021/06/27 05:17:17;;;;;;;20.40;9.63;;;;;;;;;;5011162;28;20108;-67
2021/06/27 05:19:42;;;;;;;23.98;10.70;;;;;;;;;;5011370;28;20026;-67
2021/06/27 05:22:11;;;;;;;23.15;10.52;;;;;;;;;;5010899;28;20531;-67
2021/06/27 05:24:36;;;;;;;20.52;9.70;;;;;;;;;;5011425;28;20045;-67
2021/06/27 05:27:02;;;;;;;17.30;9.13;;;;;;;;;;5013783;28;20022;-67
2021/06/27 05:29:27;;;;;;;20.17;9.75;;;;;;;;;;5014809;28;20462;-67
2021/06/27 05:31:53;;;;;;;18.98;9.38;;;;;;;;;;5014400;28;20101;-67
2021/06/27 05:34:18;;;;;;;19.77;9.15;;;;;;;;;;5014340;28;20059;-67
2021/06/27 05:36:43;;;;;;;15.73;8.90;;;;;;;;;;5014473;28;20026;-67
2021/06/27 05:39:10;;;;;;;19.63;8.45;;;;;;;;;;5014698;28;20471;-66
2021/06/27 05:41:36;;;;;;;18.52;8.93;;;;;;;;;;5014492;28;20076;-68
2021/06/27 05:44:02;;;;;;;14.35;8.02;;;;;;;;;;5014307;28;20542;-66
2021/06/27 05:46:27;;;;;;;17.38;8.35;;;;;;;;;;5014771;28;20030;-67
2021/06/27 05:48:52;;;;;;;19.60;8.05;;;;;;;;;;5014094;28;20037;-67
2021/06/27 05:51:18;;;;;;;19.38;8.65;;;;;;;;;;5013862;28;20030;-67
2021/06/27 05:53:44;;;;;;;17.10;7.90;;;;;;;;;;5013381;28;20434;-67
2021/06/27 05:56:10;;;;;;;14.65;7.80;;;;;;;;;;5015526;28;20482;-68
2021/06/27 05:58:39;;;;;;;13.57;7.47;;;;;;;;;;5013564;28;20112;-67
2021/06/27 06:01:05;;;;;;;14.05;7.40;;;;;;;;;;5014477;28;20033;-68
2021/06/27 06:03:31;;;;;;;15.70;8.45;;;;;;;;;;5012880;28;20026;-68
2021/06/27 06:05:56;;;;;;;15.75;7.75;;;;;;;;;;5014177;28;20117;-68
2021/06/27 06:08:21;;;;;;;14.57;7.72;;;;;;;;;;5013553;28;20041;-68
2021/06/27 06:10:47;;;;;;;15.15;8.00;;;;;;;;;;5014121;28;20037;-68
2021/06/27 06:13:12;;;;;;;17.17;8.43;;;;;;;;;;5013085;28;20116;-71
2021/06/27 06:15:37;;;;;;;16.38;7.60;;;;;;;;;;5014025;28;20418;-72
2021/06/27 06:18:03;;;;;;;13.65;7.05;;;;;;;;;;5013717;28;20357;-72
2021/06/27 06:20:28;;;;;;;14.48;7.47;;;;;;;;;;5013709;28;20025;-72
2021/06/27 06:22:55;;;;;;;13.30;6.93;;;;;;;;;;5013217;28;20121;-72
2021/06/27 06:25:20;;;;;;;16.38;7.53;;;;;;;;;;5013490;28;20034;-72
2021/06/27 06:27:45;;;;;;;14.18;6.72;;;;;;;;;;5013221;28;20459;-72
2021/06/27 06:30:11;;;;;;;12.50;6.45;;;;;;;;;;5013469;28;20087;-72
2021/06/27 06:32:37;;;;;;;15.48;6.78;;;;;;;;;;5013394;28;20041;-69
2021/06/27 06:35:02;;;;;;;14.88;7.28;;;;;;;;;;5012991;28;20474;-69
2021/06/27 06:37:27;;;;;;;15.27;7.30;;;;;;;;;;5012569;28;20030;-69
2021/06/27 06:39:53;;;;;;;15.10;6.95;;;;;;;;;;5012489;28;20026;-69
2021/06/27 06:42:18;;;;;;;12.02;6.53;;;;;;;;;;5013030;28;20502;-69
2021/06/27 06:44:43;;;;;;;13.48;7.20;;;;;;;;;;5012526;28;20026;-69
2021/06/27 06:47:09;;;;;;;11.65;6.97;;;;;;;;;;5013061;28;20026;-69
2021/06/27 06:49:34;;;;;;;16.20;6.75;;;;;;;;;;5012675;28;20046;-69
2021/06/27 06:51:59;;;;;;;13.75;6.53;;;;;;;;;;5012072;28;20026;-69
2021/06/27 06:54:25;;;;;;;16.27;7.40;;;;;;;;;;5012348;28;20022;-69
2021/06/27 06:56:50;;;;;;;13.25;7.07;;;;;;;;;;5015019;28;20105;-69
2021/06/27 06:59:15;;;;;;;10.52;6.28;;;;;;;;;;5012871;28;20423;-69
2021/06/27 07:01:40;;;;;;;11.88;6.35;;;;;;;;;;5017184;28;20412;-69
2021/06/27 07:04:12;;;;;;;12.48;6.20;;;;;;;;;;5010244;28;20029;-70
2021/06/27 07:06:38;;;;;;;14.43;5.90;;;;;;;;;;5012998;28;20037;-69
2021/06/27 07:09:03;;;;;;;12.13;5.90;;;;;;;;;;5012397;28;20030;-69
2021/06/27 07:11:28;;;;;;;11.40;5.88;;;;;;;;;;5013021;28;20018;-69
2021/06/27 07:13:54;;;;;;;9.43;5.22;;;;;;;;;;5012333;28;20384;-69
2021/06/27 07:16:19;;;;;;;9.88;5.30;;;;;;;;;;5012278;28;20029;-69
2021/06/27 07:18:47;;;;;;;10.77;5.75;;;;;;;;;;5013260;28;20088;-70
2021/06/27 07:21:15;;;;;;;10.82;5.55;;;;;;;;;;5011981;28;20029;-70
2021/06/27 07:23:40;;;;;;;10.02;5.47;;;;;;;;;;5011727;28;20467;-70
2021/06/27 07:26:06;;;;;;;10.25;5.72;;;;;;;;;;5011077;28;20026;-70
2021/06/27 07:28:34;;;;;;;11.93;5.25;;;;;;;;;;5012114;28;20033;-70
2021/06/27 07:30:59;;;;;;;10.10;5.30;;;;;;;;;;5007851;28;20062;-70
2021/06/27 07:33:25;;;;;;;10.43;5.05;;;;;;;;;;5006714;28;20435;-70
2021/06/27 07:35:50;;;;;;;9.63;5.13;;;;;;;;;;5008267;28;20442;-70
2021/06/27 07:38:15;;;;;;;11.35;4.90;;;;;;;;;;5008217;28;20010;-70
2021/06/27 07:40:41;;;;;;;8.93;4.95;;;;;;;;;;5009857;28;20032;-72
2021/06/27 07:43:06;;;;;;;8.57;4.90;;;;;;;;;;5007751;28;20348;-72
2021/06/27 07:45:31;;;;;;;9.85;5.25;;;;;;;;;;5000650;28;20018;-70
2021/06/27 07:47:57;;;;;;;10.20;5.20;;;;;;;;;;5009583;28;20029;-70
2021/06/27 07:50:22;;;;;;;10.05;5.15;;;;;;;;;;4996348;28;20022;-72
2021/06/27 07:52:47;;;;;;;8.07;4.47;;;;;;;;;;5009917;28;20022;-70
2021/06/27 07:55:13;;;;;;;9.90;4.22;;;;;;;;;;5012057;28;20550;-70
2021/06/27 07:57:39;;;;;;;8.60;4.90;;;;;;;;;;5010310;28;20089;-70
2021/06/27 08:00:05;;;;;;;9.00;4.80;;;;;;;;;;5003323;28;20022;-70
2021/06/27 08:02:31;;;;;;;9.55;4.47;;;;;;;;;;5001307;28;20097;-70
2021/06/27 08:04:56;;;;;;;8.57;4.70;;;;;;;;;;5010231;28;20137;-70
2021/06/27 08:07:21;;;;;;;7.47;4.30;;;;;;;;;;5009268;28;20455;-70
2021/06/27 08:09:47;;;;;;;8.82;4.00;;;;;;;;;;4999715;28;20066;-68
2021/06/27 08:12:12;;;;;;;7.50;3.92;;;;;;;;;;5005427;28;20122;-68
2021/06/27 08:14:37;;;;;;;7.00;4.13;;;;;;;;;;5003330;28;20430;-68
2021/06/27 08:17:03;;;;;;;7.80;4.13;;;;;;;;;;5007566;28;20029;-68
2021/06/27 08:19:28;;;;;;;10.05;4.57;;;;;;;;;;5011872;28;20022;-68
2021/06/27 08:21:54;;;;;;;7.25;4.43;;;;;;;;;;5012102;28;20374;-68
2021/06/27 08:24:19;;;;;;;6.72;3.85;;;;;;;;;;5011623;28;20376;-68
2021/06/27 08:26:44;;;;;;;7.05;4.55;;;;;;;;;;5011509;28;20029;-68
2021/06/27 08:29:09;;;;;;;7.25;4.40;;;;;;;;;;5011711;28;20109;-69
2021/06/27 08:31:35;;;;;;;7.85;4.18;;;;;;;;;;5011598;28;20046;-69
2021/06/27 08:34:00;;;;;;;6.53;3.88;;;;;;;;;;5011359;28;20060;-69
2021/06/27 08:36:27;;;;;;;7.28;3.72;;;;;;;;;;5011936;28;20022;-69
2021/06/27 08:38:52;;;;;;;7.45;3.90;;;;;;;;;;5011292;28;20114;-69
2021/06/27 08:41:18;;;;;;;8.68;3.75;;;;;;;;;;5011918;28;20105;-69
2021/06/27 08:43:44;;;;;;;6.43;3.80;;;;;;;;;;5011046;28;20507;-69
2021/06/27 08:46:11;;;;;;;7.70;3.75;;;;;;;;;;5011086;28;20494;-69
2021/06/27 08:48:37;;;;;;;7.22;3.83;;;;;;;;;;5010474;28;20049;-69
2021/06/27 08:51:04;;;;;;;5.45;3.13;;;;;;;;;;5010928;28;20030;-68
2021/06/27 08:53:29;;;;;;;5.60;3.33;;;;;;;;;;5011335;28;20080;-69
2021/06/27 08:56:07;;;;;;;5.43;3.08;;;;;;;;;;5009305;28;20382;-69
2021/06/27 08:58:36;;;;;;;5.30;3.13;;;;;;;;;;5006435;28;20080;-69
2021/06/27 09:01:03;;;;;;;5.78;3.10;;;;;;;;;;5012273;28;20467;-69
2021/06/27 09:03:28;;;;;;;7.40;3.50;;;;;;;;;;5014851;28;20022;-69
2021/06/27 09:05:54;;;;;;;5.40;3.30;;;;;;;;;;5015003;28;20084;-69
2021/06/27 09:08:19;;;;;;;5.63;3.30;;;;;;;;;;5014672;28;20030;-69
2021/06/27 09:10:45;;;;;;;6.38;3.28;;;;;;;;;;5015353;28;20034;-69
2021/06/27 09:13:10;;;;;;;5.80;3.40;;;;;;;;;;5014932;28;20402;-69
2021/06/27 09:15:58;;;;;;;6.63;3.28;;;;;;;;;;5010481;28;20382;-69
2021/06/27 09:18:24;;;;;;;5.63;3.33;;;;;;;;;;5014329;28;20025;-69
2021/06/27 09:21:06;;;;;;;5.47;3.40;;;;;;;;;;5014901;28;20029;-69
2021/06/27 09:23:31;;;;;;;;;;;;;;;;;;5015001;28;20022;-69
2021/06/27 09:25:56;;;;;;;7.47;3.13;;;;;;;;;;5015292;28;19913;-69
2021/06/27 09:28:22;;;;;;;5.90;3.42;;;;;;;;;;5014725;28;20030;-69
2021/06/27 09:30:48;;;;;;;9.35;3.75;;;;;;;;;;5011988;28;20079;-69
2021/06/27 09:33:17;;;;;;;6.47;3.50;;;;;;;;;;5011849;28;20014;-70
2021/06/27 09:35:55;;;;;;;6.45;3.83;;;;;;;;;;5013725;28;20021;-69
2021/06/27 09:38:44;;;;;;;8.85;3.67;;;;;;;;;;5013705;28;20097;-69
2021/06/27 09:41:18;;;;;;;5.47;3.38;;;;;;;;;;5004254;28;20499;-69
2021/06/27 09:44:11;;;;;;;6.95;3.30;;;;;;;;;;5013461;28;20022;-69
2021/06/27 09:46:40;;;;;;;7.63;3.45;;;;;;;;;;5007194;28;20038;-69
2021/06/27 09:49:07;;;;;;;5.97;3.33;;;;;;;;;;5014026;28;20555;-69
2021/06/27 09:51:33;;;;;;;5.60;3.22;;;;;;;;;;5014132;28;20557;-69
2021/06/27 09:53:59;;;;;;;6.18;3.15;;;;;;;;;;5014096;28;20018;-69
2021/06/27 09:56:24;;;;;;;6.03;3.35;;;;;;;;;;5019441;28;20022;-70
2021/06/27 09:58:53;;;;;;;7.15;3.40;;;;;;;;;;5014199;28;20108;-70
2021/06/27 10:01:22;;;;;;;4.55;2.90;;;;;;;;;;5013967;28;20029;-70
2021/06/27 10:03:52;;;;;;;6.93;3.25;;;;;;;;;;5013432;28;20021;-70
2021/06/27 10:06:18;;;;;;;6.70;2.80;;;;;;;;;;5014255;28;20034;-70
2021/06/27 10:08:43;;;;;;;7.22;3.17;;;;;;;;;;5014067;28;20030;-70
2021/06/27 10:11:17;;;;;;;6.65;3.22;;;;;;;;;;5013437;28;20105;-69
2021/06/27 10:13:44;;;;;;;5.53;3.40;;;;;;;;;;5012560;28;20073;-69
2021/06/27 10:16:14;;;;;;;5.43;3.15;;;;;;;;;;5013976;28;20026;-69
2021/06/27 10:18:40;;;;;;;4.68;2.80;;;;;;;;;;5013925;28;20091;-69
2021/06/27 10:21:05;;;;;;;9.15;3.78;;;;;;;;;;5013375;28;20371;-69
2021/06/27 10:23:31;;;;;;;4.63;2.70;;;;;;;;;;5013487;28;20022;-69
2021/06/27 10:25:56;;;;;;;4.93;2.83;;;;;;;;;;5013804;28;20543;-69
2021/06/27 10:28:22;;;;;;;4.38;2.63;;;;;;;;;;5012864;28;20030;-69
2021/06/27 10:30:49;;;;;;;3.95;2.33;;;;;;;;;;5013064;28;20030;-69
2021/06/27 10:33:15;;;;;;;3.88;2.30;;;;;;;;;;5012981;28;20038;-69
2021/06/27 10:35:47;;;;;;;4.63;2.63;;;;;;;;;;5012333;28;20386;-70
2021/06/27 10:38:13;;;;;;;4.82;2.40;;;;;;;;;;5012869;28;20017;-70
2021/06/27 10:40:48;;;;;;;6.00;2.20;;;;;;;;;;5013763;28;20049;-70
2021/06/27 10:43:13;;;;;;;4.90;2.72;;;;;;;;;;5006289;28;20025;-70
2021/06/27 10:45:59;;;;;;;3.67;2.20;;;;;;;;;;5009772;28;20017;-71
2021/06/27 10:48:37;;;;;;;4.50;2.65;;;;;;;;;;5005277;28;20029;-70
2021/06/27 10:51:04;;;;;;;5.90;3.20;;;;;;;;;;5003153;28;20498;-70
2021/06/27 10:53:29;;;;;;;4.68;2.63;;;;;;;;;;5011714;28;20018;-70
2021/06/27 10:55:58;;;;;;;4.47;2.40;;;;;;;;;;5014972;28;20112;-70
2021/06/27 10:58:39;;;;;;;6.03;2.70;;;;;;;;;;5012802;28;20040;-71
2021/06/27 11:01:05;;;;;;;4.38;2.33;;;;;;;;;;5013325;28;20558;-71
2021/06/27 11:03:38;;;;;;;3.90;2.10;;;;;;;;;;5012396;28;20034;-71
2021/06/27 11:06:05;;;;;;;5.13;2.80;;;;;;;;;;5012958;28;20061;-71
2021/06/27 11:08:34;;;;;;;5.65;2.50;;;;;;;;;;5005461;28;20462;-71
2021/06/27 11:11:12;;;;;;;4.57;2.40;;;;;;;;;;5012458;28;20762;-71
2021/06/27 11:13:38;;;;;;;3.97;2.20;;;;;;;;;;5005289;28;20574;-71
2021/06/27 11:16:11;;;;;;;5.32;2.40;;;;;;;;;;5012149;28;20095;-71
2021/06/27 11:18:41;;;;;;;5.60;2.50;;;;;;;;;;5012346;28;20030;-71
2021/06/27 11:21:08;;;;;;;3.78;2.13;;;;;;;;;;5012172;28;20105;-71
2021/06/27 11:23:51;;;;;;;3.67;2.08;;;;;;;;;;5011576;28;20124;-71
2021/06/27 11:26:35;;;;;;;3.70;2.05;;;;;;;;;;5010351;28;20065;-71
2021/06/27 11:29:00;;;;;;;3.28;1.98;;;;;;;;;;5011948;28;20104;-70
2021/06/27 11:31:27;;;;;;;4.88;2.47;;;;;;;;;;5010764;28;20108;-70
2021/06/27 11:34:11;;;;;;;4.18;2.40;;;;;;;;;;5011536;28;20026;-71
2021/06/27 11:36:36;;;;;;;5.25;2.70;;;;;;;;;;5012418;28;20438;-71
2021/06/27 11:39:01;;;;;;;4.00;2.40;;;;;;;;;;5012307;28;20101;-71
2021/06/27 11:41:37;;;;;;;5.28;2.38;;;;;;;;;;5010111;28;20113;-71
2021/06/27 11:44:06;;;;;;;4.78;2.40;;;;;;;;;;5011863;28;20410;-71
2021/06/27 11:46:36;;;;;;;5.57;2.15;;;;;;;;;;5011872;28;20021;-72
2021/06/27 11:49:09;;;;;;;4.78;2.70;;;;;;;;;;5004601;28;20029;-72
2021/06/27 11:51:36;;;;;;;3.50;2.10;;;;;;;;;;4997843;28;20101;-72
2021/06/27 11:54:02;;;;;;;3.88;2.20;;;;;;;;;;5006005;28;20014;-72
2021/06/27 11:56:27;;;;;;;4.25;2.60;;;;;;;;;;5001320;28;20283;-72
2021/06/27 11:59:09;;;;;;;5.65;2.58;;;;;;;;;;5008321;28;20069;-72
2021/06/27 12:01:34;;;;;;;4.18;2.40;;;;;;;;;;5010540;28;20430;-72
2021/06/27 12:03:59;;;;;;;4.50;2.60;;;;;;;;;;5011354;28;20026;-72
2021/06/27 12:06:27;;;;;;;4.90;2.33;;;;;;;;;;5012230;28;20034;-72
2021/06/27 12:08:52;;;;;;;4.80;2.55;;;;;;;;;;5011606;28;20026;-73
2021/06/27 12:11:18;;;;;;;4.72;2.40;;;;;;;;;;5012066;28;20032;-73
2021/06/27 12:13:43;;;;;;;6.68;2.70;;;;;;;;;;5003423;28;20050;-72
2021/06/27 12:16:09;;;;;;;5.20;2.45;;;;;;;;;;5008525;28;20014;-72
2021/06/27 12:18:35;;;;;;;4.93;2.88;;;;;;;;;;5010992;28;20025;-72
2021/06/27 12:21:02;;;;;;;4.30;2.78;;;;;;;;;;5012084;28;20029;-72
2021/06/27 12:23:31;;;;;;;4.72;2.10;;;;;;;;;;5011239;28;20026;-72
2021/06/27 12:25:58;;;;;;;4.47;2.40;;;;;;;;;;5009735;28;20379;-72
2021/06/27 12:28:31;;;;;;;4.55;2.10;;;;;;;;;;5011807;28;20029;-72
2021/06/27 12:31:04;;;;;;;4.53;2.20;;;;;;;;;;5011928;28;20022;-71
2021/06/27 12:33:33;;;;;;;3.80;2.35;;;;;;;;;;5009492;28;20034;-71
2021/06/27 12:36:05;;;;;;;4.43;2.50;;;;;;;;;;5005461;28;20026;-71
2021/06/27 12:38:30;;;;;;;4.25;2.70;;;;;;;;;;5002888;28;20038;-71
2021/06/27 12:40:58;;;;;;;13.63;2.90;;;;;;;;;;5008016;28;20033;-71
2021/06/27 12:43:42;;;;;;;6.65;4.30;;;;;;;;;;5004414;28;20053;-71
2021/06/27 12:46:28;;;;;;;5.20;2.90;;;;;;;;;;5000035;28;20548;-71
2021/06/27 12:49:23;;;;;;;7.70;3.35;;;;;;;;;;4994040;28;20042;-71
2021/06/27 12:52:17;;;;;;;6.82;2.90;;;;;;;;;;5018309;28;20049;-71
2021/06/27 12:54:46;;;;;;;4.88;2.67;;;;;;;;;;4978142;28;20509;-72
2021/06/27 12:57:21;;;;;;;6.80;3.08;;;;;;;;;;5006072;28;20018;-72
2021/06/27 13:02:31;;;;;;;4.28;2.40;;;;;;;;;;5009252;28;20494;-72
2021/06/27 13:04:58;;;;;;;5.72;2.67;;;;;;;;;;5008922;28;20022;-72
2021/06/27 13:07:44;;;;;;;4.47;2.45;;;;;;;;;;5008176;28;20033;-73
2021/06/27 13:10:13;;;;;;;5.80;2.67;;;;;;;;;;5005100;28;20057;-71
2021/06/27 13:13:14;;;;;;;4.90;2.60;;;;;;;;;;5002129;28;20041;-72
2021/06/27 13:15:46;;;;;;;4.38;2.80;;;;;;;;;;5009432;28;20041;-71
2021/06/27 13:18:16;;;;;;;5.75;2.92;;;;;;;;;;5008279;28;20038;-71
2021/06/27 13:20:47;;;;;;;4.22;2.60;;;;;;;;;;5008051;28;20037;-72
2021/06/27 13:23:39;;;;;;;5.18;3.03;;;;;;;;;;4998220;28;20083;-71
2021/06/27 13:26:14;;;;;;;4.47;2.70;;;;;;;;;;5000221;28;20063;-71
2021/06/27 13:28:43;;;;;;;4.50;2.70;;;;;;;;;;4999205;28;20026;-72
2021/06/27 13:31:13;;;;;;;4.32;2.58;;;;;;;;;;5004334;28;20033;-72
2021/06/27 13:33:43;;;;;;;4.93;2.50;;;;;;;;;;5007509;28;20029;-71
2021/06/27 13:36:10;;;;;;;4.43;2.60;;;;;;;;;;5007945;28;20022;-71
2021/06/27 13:38:39;;;;;;;4.18;2.50;;;;;;;;;;5006880;28;20076;-70
2021/06/27 13:41:05;;;;;;;6.03;2.97;;;;;;;;;;5008088;28;20029;-71
2021/06/27 13:43:30;;;;;;;6.53;3.00;;;;;;;;;;5007718;28;20092;-71
2021/06/27 13:45:56;;;;;;;4.28;2.78;;;;;;;;;;5007711;28;20049;-71
2021/06/27 13:48:21;;;;;;;5.25;3.00;;;;;;;;;;5009780;28;20064;-72
2021/06/27 13:50:47;;;;;;;4.40;3.00;;;;;;;;;;5010941;28;20453;-72
2021/06/27 13:53:12;;;;;;;4.22;2.40;;;;;;;;;;5010739;28;20030;-73
2021/06/27 13:55:38;;;;;;;5.00;2.60;;;;;;;;;;5006125;28;20021;-73
2021/06/27 13:58:05;;;;;;;4.97;2.60;;;;;;;;;;5008885;28;20029;-72
2021/06/27 14:00:30;;;;;;;3.78;2.40;;;;;;;;;;5011298;28;20032;-73
2021/06/27 14:02:55;;;;;;;3.75;2.45;;;;;;;;;;5010047;28;20449;-72
2021/06/27 14:05:21;;;;;;;4.45;2.72;;;;;;;;;;5008993;28;20030;-71
2021/06/27 14:07:47;;;;;;;5.13;2.58;;;;;;;;;;5008480;28;20050;-71
2021/06/27 14:10:13;;;;;;;4.40;2.72;;;;;;;;;;5008852;28;20061;-71
2021/06/27 14:12:39;;;;;;;4.80;2.78;;;;;;;;;;5009883;28;20405;-71
2021/06/27 14:15:05;;;;;;;5.00;2.90;;;;;;;;;;5009941;28;20013;-71
2021/06/27 14:17:30;;;;;;;5.18;3.00;;;;;;;;;;5009282;28;20116;-72
2021/06/27 14:19:56;;;;;;;5.50;2.95;;;;;;;;;;5009942;28;20113;-73
2021/06/27 14:22:21;;;;;;;4.43;2.75;;;;;;;;;;5007208;28;20478;-72
2021/06/27 14:24:47;;;;;;;4.03;2.58;;;;;;;;;;5004941;28;20026;-73
2021/06/27 14:27:12;;;;;;;4.00;2.25;;;;;;;;;;5006509;28;20049;-73
2021/06/27 14:29:37;;;;;;;4.20;2.60;;;;;;;;;;5000961;28;20142;-72
2021/06/27 14:32:06;;;;;;;4.15;2.38;;;;;;;;;;5001137;28;20727;-72
2021/06/27 14:34:31;;;;;;;4.75;2.67;;;;;;;;;;5008836;28;20116;-72